Time;durP1;ratioP1;P1;durP2;ratioP2;P2;SDS_P1;SDS_P2;PMS_P1;PMS_P2;Temp;Humidity;BMP_temperature;BMP_pressure;BME280_temperature;BME280_humidity;BME280_pressure;Samples;Min_cycle;Max_cycle;Signal;HPM_P1;HPM_P2
2021/04/09 00:01:27;;;;;;;8.07;5.00;;;;;;;1.66;66.81;98935.69;5050486;28;20020;-72
2021/04/09 00:03:54;;;;;;;11.48;6.50;;;;;;;1.65;67.49;98935.94;5050479;28;20112;-72
2021/04/09 00:06:20;;;;;;;12.75;7.15;;;;;;;1.56;67.86;98943.44;5050259;28;20025;-72
2021/04/09 00:08:46;;;;;;;15.75;7.50;;;;;;;1.62;68.24;98942.56;5050855;28;20075;-73
2021/04/09 00:11:11;;;;;;;12.68;6.68;;;;;;;1.68;68.09;98938.19;5032266;28;20074;-73
2021/04/09 00:13:37;;;;;;;10.68;5.35;;;;;;;1.68;68.21;98948.97;5040591;28;20042;-72
2021/04/09 00:16:02;;;;;;;15.65;5.05;;;;;;;1.73;68.03;98933.81;5030339;28;20372;-72
2021/04/09 00:18:28;;;;;;;8.60;4.63;;;;;;;1.80;67.90;98931.91;5030389;28;20471;-72
2021/04/09 00:20:53;;;;;;;;;;;;;;;1.62;68.42;98939.88;5030823;28;20029;-72
2021/04/09 00:23:19;;;;;;;11.32;6.70;;;;;;;1.64;68.79;98940.50;5030485;28;19947;-72
2021/04/09 00:25:44;;;;;;;13.93;6.88;;;;;;;1.70;68.76;98942.31;5030373;28;20036;-73
2021/04/09 00:28:09;;;;;;;;;;;;;;;1.68;68.78;98947.13;5030393;28;20474;-73
2021/04/09 00:30:35;;;;;;;15.05;7.18;;;;;;;1.43;68.89;98941.63;5012598;28;19921;-72
2021/04/09 00:33:00;;;;;;;13.27;7.15;;;;;;;1.30;70.60;98944.34;5030419;28;20057;-72
2021/04/09 00:35:25;;;;;;;16.20;7.97;;;;;;;1.30;70.77;98938.94;5030371;28;20470;-73
2021/04/09 00:37:51;;;;;;;;;;;;;;;1.43;70.36;98946.16;5013538;28;20064;-72
2021/04/09 00:40:17;;;;;;;16.40;7.47;;;;;;;1.51;70.00;98948.63;5030277;28;20297;-72
2021/04/09 00:42:43;;;;;;;;;;;;;;;1.37;70.05;98947.03;5030558;28;20026;-71
2021/04/09 00:45:10;;;;;;;13.88;7.40;;;;;;;1.30;70.34;98947.03;5012325;28;19924;-72
2021/04/09 00:47:35;;;;;;;14.73;8.00;;;;;;;1.29;70.29;98950.75;5029949;28;20030;-72
2021/04/09 00:50:01;;;;;;;14.48;8.68;;;;;;;1.30;70.11;98941.66;5030105;28;20090;-72
2021/04/09 00:52:32;;;;;;;14.60;9.77;;;;;;;1.38;69.72;98951.38;5029985;28;20056;-72
2021/04/09 00:54:59;;;;;;;16.15;9.35;;;;;;;1.24;70.35;98955.13;5015480;28;20036;-73
2021/04/09 00:57:26;;;;;;;15.75;6.80;;;;;;;1.13;69.99;98959.28;5016115;28;20390;-72
2021/04/09 00:59:51;;;;;;;13.98;8.00;;;;;;;1.15;69.87;98959.94;5033902;28;20432;-72
2021/04/09 01:02:17;;;;;;;16.77;6.97;;;;;;;1.05;70.43;98952.28;5033904;28;20033;-72
2021/04/09 01:04:42;;;;;;;11.77;7.20;;;;;;;1.14;70.13;98954.72;5033768;28;20163;-72
2021/04/09 01:07:07;;;;;;;;;;;;;;;1.27;69.73;98960.09;5034096;28;20123;-72
2021/04/09 01:09:36;;;;;;;13.27;5.90;;;;;;;1.20;70.22;98949.34;5033909;28;19921;-72
2021/04/09 01:12:03;;;;;;;13.10;6.97;;;;;;;1.10;70.11;98943.56;5015872;28;20124;-72
2021/04/09 01:14:29;;;;;;;12.88;6.15;;;;;;;1.11;70.76;98939.00;5033553;28;20022;-72
2021/04/09 01:17:14;;;;;;;11.98;7.25;;;;;;;1.14;70.98;98942.09;5033946;28;20025;-72
2021/04/09 01:20:13;;;;;;;13.65;7.55;;;;;;;1.05;71.30;98938.81;5033725;28;20041;-72
2021/04/09 01:22:55;;;;;;;14.93;6.55;;;;;;;0.98;71.49;98935.28;5033460;28;20029;-72
2021/04/09 01:25:56;;;;;;;10.13;6.10;;;;;;;0.87;71.75;98930.56;5033601;28;20061;-72
2021/04/09 01:28:41;;;;;;;10.57;5.88;;;;;;;0.64;72.72;98932.84;5032472;28;20061;-72
2021/04/09 01:31:35;;;;;;;10.30;6.22;;;;;;;0.60;73.55;98928.91;5002187;28;20037;-72
2021/04/09 01:34:01;;;;;;;12.75;6.32;;;;;;;0.67;73.70;98932.44;5033113;28;20053;-72
2021/04/09 01:36:36;;;;;;;11.93;7.18;;;;;;;0.69;73.48;98930.34;5033290;28;20029;-72
2021/04/09 01:39:10;;;;;;;10.77;5.75;;;;;;;0.77;73.29;98935.53;5033531;28;20045;-71
2021/04/09 01:41:39;;;;;;;9.35;6.80;;;;;;;0.73;73.69;98926.22;5033130;28;20041;-72
2021/04/09 01:44:07;;;;;;;12.50;6.43;;;;;;;0.66;73.90;98925.38;5033100;28;20427;-71
2021/04/09 01:46:36;;;;;;;14.20;8.35;;;;;;;0.65;74.20;98923.75;5032902;28;20025;-72
2021/04/09 01:49:02;;;;;;;12.48;6.50;;;;;;;0.46;75.03;98924.56;5036119;28;20498;-72
2021/04/09 01:51:28;;;;;;;9.00;6.00;;;;;;;0.48;75.18;98925.19;5040911;28;20050;-71
2021/04/09 01:53:55;;;;;;;9.07;4.82;;;;;;;0.53;75.28;98920.81;5034244;28;20036;-71
2021/04/09 01:56:22;;;;;;;12.00;5.28;;;;;;;0.38;75.58;98922.91;5032912;28;20034;-72
2021/04/09 01:58:49;;;;;;;8.45;6.30;;;;;;;0.25;76.67;98930.16;5032808;28;20037;-71
2021/04/09 02:01:15;;;;;;;11.50;6.05;;;;;;;0.44;75.82;98915.88;5032848;28;20478;-71
2021/04/09 02:03:43;;;;;;;13.05;7.00;;;;;;;0.36;75.96;98924.16;5032734;28;20048;-72
2021/04/09 02:06:08;;;;;;;14.75;7.00;;;;;;;0.33;76.38;98916.50;5031180;28;20129;-71
2021/04/09 02:08:36;;;;;;;9.65;6.30;;;;;;;0.38;76.16;98922.06;5032801;28;20116;-73
2021/04/09 02:11:02;;;;;;;15.02;7.32;;;;;;;0.18;76.56;98916.69;5032386;28;20072;-72
2021/04/09 02:13:28;;;;;;;14.23;7.57;;;;;;;0.27;76.69;98911.94;5024673;28;20029;-71
2021/04/09 02:15:55;;;;;;;12.73;6.93;;;;;;;0.27;76.57;98910.09;5012606;28;20497;-72
2021/04/09 02:18:25;;;;;;;7.10;4.95;;;;;;;0.09;76.81;98914.41;5020793;28;20026;-71
2021/04/09 02:20:52;;;;;;;7.38;4.65;;;;;;;0.26;77.02;98915.66;5032109;28;20036;-72
2021/04/09 02:23:18;;;;;;;10.93;5.47;;;;;;;0.29;76.56;98907.16;5014212;28;20056;-73
2021/04/09 02:25:43;;;;;;;9.75;6.57;;;;;;;0.06;76.41;98906.75;5032049;28;20018;-73
2021/04/09 02:28:08;;;;;;;9.20;4.70;;;;;;;0.28;75.91;98921.69;5032188;28;20076;-72
2021/04/09 02:30:34;;;;;;;6.18;4.38;;;;;;;0.11;76.47;98909.63;5023176;28;20072;-72
2021/04/09 02:32:59;;;;;;;12.52;5.30;;;;;;;-0.02;76.62;98911.28;5012100;28;20065;-71
2021/04/09 02:35:25;;;;;;;9.68;5.47;;;;;;;0.14;76.23;98907.38;5012251;28;20058;-72
2021/04/09 02:37:51;;;;;;;11.63;5.72;;;;;;;-0.03;76.65;98909.63;5012419;28;20056;-71
2021/04/09 02:40:21;;;;;;;12.65;6.30;;;;;;;-0.21;77.43;98913.91;5016938;28;20036;-72
2021/04/09 02:42:49;;;;;;;12.02;6.15;;;;;;;-0.04;77.15;98907.97;5013901;28;20025;-71
2021/04/09 02:45:17;;;;;;;9.10;5.45;;;;;;;-0.02;77.29;98903.22;5013820;28;20026;-72
2021/04/09 02:47:44;;;;;;;10.43;5.78;;;;;;;-0.16;78.17;98901.50;5013754;28;20120;-72
2021/04/09 02:50:21;;;;;;;13.85;5.43;;;;;;;-0.03;77.80;98904.25;5031507;28;20049;-72
2021/04/09 02:52:51;;;;;;;9.20;5.32;;;;;;;-0.01;77.63;98899.50;5031318;28;20021;-72
2021/04/09 02:55:20;;;;;;;17.23;7.82;;;;;;;-0.12;78.15;98900.09;5031416;28;20029;-73
2021/04/09 02:57:48;;;;;;;13.63;8.23;;;;;;;-0.11;78.72;98899.06;5031570;28;20028;-72
2021/04/09 03:00:14;;;;;;;21.33;9.20;;;;;;;-0.07;77.85;98894.94;5031292;28;20052;-72
2021/04/09 03:02:40;;;;;;;19.48;8.82;;;;;;;0.08;77.17;98905.50;5031418;28;20034;-73
2021/04/09 03:05:09;;;;;;;13.98;6.80;;;;;;;-0.03;77.44;98898.03;5031667;28;20167;-72
2021/04/09 03:07:37;;;;;;;16.23;6.97;;;;;;;-0.13;77.73;98897.63;5031374;28;20032;-72
2021/04/09 03:10:15;;;;;;;18.27;8.32;;;;;;;-0.06;77.79;98891.19;5031560;28;20108;-72
2021/04/09 03:12:41;;;;;;;14.35;8.82;;;;;;;-0.01;77.45;98895.97;5031081;28;20103;-73
2021/04/09 03:15:13;;;;;;;14.57;7.28;;;;;;;-0.09;77.05;98894.31;5031151;28;20030;-72
2021/04/09 03:17:55;;;;;;;19.98;9.13;;;;;;;0.03;76.90;98899.09;5030695;28;20022;-73
2021/04/09 03:20:20;;;;;;;14.80;6.97;;;;;;;-0.26;77.22;98890.34;5031519;28;20124;-72
2021/04/09 03:22:47;;;;;;;9.35;5.35;;;;;;;-0.22;77.75;98894.28;5031348;28;20491;-72
2021/04/09 03:25:12;;;;;;;6.88;5.68;;;;;;;-0.11;77.16;98896.38;5031437;28;20501;-72
2021/04/09 03:27:38;;;;;;;8.45;5.00;;;;;;;-0.30;78.08;98897.16;5031543;28;20087;-72
2021/04/09 03:30:04;;;;;;;;;;;;;;;-0.43;78.93;98886.38;5031472;28;20467;-72
2021/04/09 03:32:29;;;;;;;8.50;5.03;;;;;;;-0.45;78.81;98883.06;5030381;28;19917;-73
2021/04/09 03:34:54;;;;;;;10.48;6.07;;;;;;;-0.52;79.75;98884.88;5030719;28;20030;-72
2021/04/09 03:37:20;;;;;;;6.97;4.63;;;;;;;-0.50;79.47;98892.75;5030830;28;20029;-72
2021/04/09 03:39:46;;;;;;;5.95;4.80;;;;;;;-0.61;79.86;98891.47;5030550;28;20025;-72
2021/04/09 03:42:12;;;;;;;12.48;6.45;;;;;;;-0.70;80.39;98890.00;5030569;28;20074;-72
2021/04/09 03:44:37;;;;;;;10.75;7.60;;;;;;;-0.63;80.54;98890.84;5030757;28;20497;-72
2021/04/09 03:47:03;;;;;;;10.60;7.35;;;;;;;-0.35;79.43;98894.25;5030427;28;20475;-72
2021/04/09 03:49:28;;;;;;;;;;;;;;;-0.47;79.56;98889.69;5030922;28;20052;-72
2021/04/09 03:51:54;;;;;;;13.20;8.13;;;;;;;-0.37;79.39;98893.63;5030404;28;19917;-72
2021/04/09 03:54:19;;;;;;;11.68;7.40;;;;;;;-0.39;79.06;98893.00;5030033;28;20069;-72
2021/04/09 03:56:45;;;;;;;13.48;6.68;;;;;;;-0.46;79.52;98891.31;5030401;28;20135;-73
2021/04/09 03:59:11;;;;;;;8.82;5.80;;;;;;;-0.49;79.77;98887.19;5012638;28;20010;-72
2021/04/09 04:01:36;;;;;;;;;;;;;;;-0.34;79.79;98887.00;5013256;28;20430;-73
2021/04/09 04:04:02;;;;;;;15.80;8.60;;;;;;;-0.36;79.76;98887.22;5030451;28;19940;-72
2021/04/09 04:06:27;;;;;;;11.82;6.55;;;;;;;-0.47;80.05;98887.00;5031073;28;20021;-72
2021/04/09 04:08:53;;;;;;;12.15;7.78;;;;;;;-0.32;79.78;98887.66;5036208;28;20076;-73
2021/04/09 04:11:18;;;;;;;11.60;7.70;;;;;;;-0.30;79.58;98891.78;5032320;28;20021;-73
2021/04/09 04:13:44;;;;;;;10.98;6.75;;;;;;;-0.28;79.55;98895.09;5030600;28;20030;-73
2021/04/09 04:16:10;;;;;;;17.17;7.95;;;;;;;-0.35;79.44;98882.69;5012477;28;20095;-71
2021/04/09 04:18:35;;;;;;;13.90;6.65;;;;;;;-0.51;79.99;98885.72;5030299;28;20367;-72
2021/04/09 04:21:01;;;;;;;14.48;5.55;;;;;;;-0.55;80.13;98888.81;5030368;28;20512;-73
2021/04/09 04:23:26;;;;;;;;;;;;;;;-0.62;80.76;98890.63;5030494;28;20018;-74
2021/04/09 04:25:52;;;;;;;16.45;6.75;;;;;;;-0.68;80.96;98888.75;5030205;28;19924;-73
2021/04/09 04:28:17;;;;;;;9.88;6.78;;;;;;;-0.36;80.60;98891.75;5030788;28;20052;-72
2021/04/09 04:30:50;;;;;;;17.00;7.15;;;;;;;-0.42;80.34;98895.25;5034126;28;20033;-72
2021/04/09 04:33:16;;;;;;;11.82;7.70;;;;;;;-0.54;80.94;98889.66;5033707;28;20059;-73
2021/04/09 04:35:41;;;;;;;15.40;7.40;;;;;;;-0.51;81.29;98888.41;5032751;28;20727;-72
2021/04/09 04:38:06;;;;;;;;;;;;;;;-0.33;80.57;98891.34;5022440;28;20391;-72
2021/04/09 04:40:31;;;;;;;8.43;5.90;;;;;;;-0.34;80.60;98897.75;5031941;28;19971;-72
2021/04/09 04:42:57;;;;;;;12.52;6.47;;;;;;;-0.45;80.94;98884.91;5029522;28;20030;-71
2021/04/09 04:45:22;;;;;;;14.88;6.90;;;;;;;-0.39;80.87;98895.69;5014110;28;20026;-72
2021/04/09 04:47:48;;;;;;;;;;;;;;;-0.29;80.79;98904.19;4996862;28;20415;-73
2021/04/09 04:50:13;;;;;;;10.75;5.55;;;;;;;-0.20;80.49;98897.59;5013985;28;19924;-72
2021/04/09 04:52:38;;;;;;;11.27;5.50;;;;;;;-0.08;79.84;98897.81;5015165;28;20022;-72
2021/04/09 04:55:05;;;;;;;11.57;6.28;;;;;;;-0.06;79.54;98893.91;5000207;28;20041;-72
2021/04/09 04:57:30;;;;;;;12.48;5.78;;;;;;;-0.16;80.65;98904.22;5015241;28;20031;-73
2021/04/09 04:59:55;;;;;;;8.73;5.13;;;;;;;0.02;79.62;98892.06;5033854;28;20428;-72
2021/04/09 05:02:21;;;;;;;9.90;6.53;;;;;;;0.05;79.58;98897.84;5033582;28;20394;-72
2021/04/09 05:04:46;;;;;;;9.88;5.22;;;;;;;0.14;78.84;98903.84;5030222;28;20026;-72
2021/04/09 05:07:11;;;;;;;13.15;6.57;;;;;;;0.41;78.40;98916.28;5031092;28;20060;-72
2021/04/09 05:09:37;;;;;;;18.85;7.80;;;;;;;0.55;77.54;98909.88;5014839;28;20053;-71
2021/04/09 05:12:02;;;;;;;;;;;;;;;0.81;76.51;98917.09;5029903;28;20079;-71
2021/04/09 05:14:27;;;;;;;9.35;6.00;;;;;;;0.84;75.89;98906.75;5030132;28;19927;-71
2021/04/09 05:16:55;;;;;;;;;;;;;;;0.84;75.94;98920.22;5030694;28;20486;-73
2021/04/09 05:19:21;;;;;;;16.50;7.47;;;;;;;0.92;75.71;98919.97;5031066;28;20414;-72
2021/04/09 05:21:46;;;;;;;13.55;7.05;;;;;;;1.03;76.48;98918.53;5012826;28;20018;-72
2021/04/09 05:24:12;;;;;;;;;;;;;;;1.24;75.40;98922.81;5031427;28;20045;-71
2021/04/09 05:26:37;;;;;;;10.25;5.95;;;;;;;1.24;75.25;98918.25;5031009;28;19909;-73
2021/04/09 05:29:02;;;;;;;15.63;7.40;;;;;;;1.58;74.25;98914.38;5030800;28;20471;-71
2021/04/09 05:31:28;;;;;;;16.05;6.78;;;;;;;1.41;74.96;98907.84;5030635;28;20395;-71
2021/04/09 05:33:53;;;;;;;;;;;;;;;1.67;74.71;98913.09;5030868;28;20108;-70
2021/04/09 05:36:20;;;;;;;9.77;6.15;;;;;;;1.74;73.21;98924.69;5012814;28;21706;-70
2021/04/09 05:38:45;;;;;;;12.77;6.82;;;;;;;1.91;73.67;98920.44;5028491;28;20101;-71
2021/04/09 05:41:11;;;;;;;17.20;8.70;;;;;;;1.93;73.20;98921.06;5030217;28;20562;-71
2021/04/09 05:43:36;;;;;;;8.55;6.03;;;;;;;1.80;72.62;98906.81;5030124;28;20033;-71
2021/04/09 05:46:01;;;;;;;;;;;;;;;1.99;72.47;98917.50;5025448;28;20017;-71
2021/04/09 05:48:32;;;;;;;18.50;6.68;;;;;;;2.15;72.79;98914.28;5025251;28;19919;-71
2021/04/09 05:50:58;;;;;;;16.92;6.30;;;;;;;2.30;71.31;98918.53;5029737;28;20173;-71
2021/04/09 05:53:23;;;;;;;20.10;7.13;;;;;;;2.51;69.82;98916.28;5030467;28;20030;-72
2021/04/09 05:55:50;;;;;;;11.32;6.57;;;;;;;2.37;69.14;98924.72;5030928;28;20095;-72
2021/04/09 05:58:16;;;;;;;12.95;7.60;;;;;;;2.22;69.62;98919.63;5009574;28;20520;-72
2021/04/09 06:00:41;;;;;;;14.38;5.95;;;;;;;2.26;69.94;98922.69;5029866;28;20037;-72
2021/04/09 06:03:07;;;;;;;14.32;7.25;;;;;;;2.43;69.35;98918.44;5029089;28;20022;-72
2021/04/09 06:05:32;;;;;;;;;;;;;;;2.49;68.97;98920.25;5029999;28;20025;-71
2021/04/09 06:07:58;;;;;;;12.30;6.57;;;;;;;2.65;67.80;98917.84;5029902;28;20027;-71
2021/04/09 06:10:24;;;;;;;29.30;8.75;;;;;;;2.87;67.05;98926.38;5015423;28;20022;-73
2021/04/09 06:12:50;;;;;;;13.80;7.95;;;;;;;2.76;67.83;98929.78;5030087;28;20037;-72
2021/04/09 06:15:16;;;;;;;15.50;7.22;;;;;;;2.77;67.51;98926.03;5029798;28;20517;-72
2021/04/09 06:17:43;;;;;;;14.85;7.80;;;;;;;2.85;67.56;98935.75;5029658;28;20113;-72
2021/04/09 06:20:08;;;;;;;24.50;8.50;;;;;;;3.03;66.78;98923.09;5029713;28;20033;-72
2021/04/09 06:22:34;;;;;;;15.93;8.82;;;;;;;3.18;65.64;98931.69;5029631;28;20021;-72
2021/04/09 06:25:01;;;;;;;18.80;8.10;;;;;;;3.44;65.56;98930.56;5030426;28;20075;-72
2021/04/09 06:27:26;;;;;;;18.02;7.90;;;;;;;3.20;65.72;98931.44;5034047;28;20100;-74
2021/04/09 06:29:51;;;;;;;14.07;8.05;;;;;;;3.41;65.34;98927.50;5031644;28;20125;-73
2021/04/09 06:32:17;;;;;;;;;;;;;;;3.72;64.92;98935.44;5029859;28;20026;-72
2021/04/09 06:34:42;;;;;;;10.43;6.43;;;;;;;3.64;64.10;98936.56;5027945;28;19917;-72
2021/04/09 06:37:07;;;;;;;;;;;;;;;3.84;63.09;98932.78;5029998;28;20029;-72
2021/04/09 06:39:33;;;;;;;15.27;7.50;;;;;;;3.89;63.54;98920.22;5030373;28;19920;-72
2021/04/09 06:41:58;;;;;;;;;;;;;;;4.02;63.18;98936.28;5012121;28;20040;-74
2021/04/09 06:44:24;;;;;;;12.98;6.90;;;;;;;4.07;62.08;98922.88;5029792;28;19917;-75
2021/04/09 06:46:49;;;;;;;;;;;;;;;4.16;62.12;98931.50;5029713;28;20493;-75
2021/04/09 06:49:14;;;;;;;15.23;6.70;;;;;;;4.05;62.22;98930.41;5029510;28;19976;-74
2021/04/09 06:51:45;;;;;;;10.13;6.03;;;;;;;4.42;61.47;98924.91;5010962;28;20037;-74
2021/04/09 06:54:11;;;;;;;18.35;6.75;;;;;;;4.67;60.71;98923.63;5029652;28;20033;-75
2021/04/09 06:56:37;;;;;;;14.38;6.80;;;;;;;4.61;59.99;98923.72;5029819;28;20025;-76
2021/04/09 06:59:11;;;;;;;10.85;5.63;;;;;;;4.66;59.90;98918.44;5003615;28;20366;-75
2021/04/09 07:01:40;;;;;;;11.65;5.47;;;;;;;4.68;59.62;98916.31;5010793;28;20067;-77
2021/04/09 07:04:06;;;;;;;10.35;6.28;;;;;;;4.88;58.66;98918.72;5027474;28;20030;-75
2021/04/09 07:06:31;;;;;;;9.35;5.90;;;;;;;5.38;57.13;98912.56;5030425;28;20057;-75
2021/04/09 07:08:57;;;;;;;12.10;6.90;;;;;;;5.22;56.44;98918.72;5030850;28;20053;-77
2021/04/09 07:11:22;;;;;;;;;;;;;;;5.29;56.27;98919.38;5031768;28;20029;-74
2021/04/09 07:13:52;;;;;;;9.63;5.80;;;;;;;5.34;56.39;98914.09;5031687;28;20340;-75
2021/04/09 07:16:17;;;;;;;12.10;6.53;;;;;;;5.96;55.81;98921.63;5029069;28;20038;-75
2021/04/09 07:19:04;;;;;;;13.15;5.53;;;;;;;5.96;53.65;98916.19;5012311;28;20879;-75
2021/04/09 07:21:32;;;;;;;10.50;6.63;;;;;;;6.07;53.42;98907.19;5027108;28;20028;-77
2021/04/09 07:24:24;;;;;;;13.48;5.72;;;;;;;6.39;52.70;98916.50;5029609;28;20028;-76
2021/04/09 07:26:52;;;;;;;10.95;5.10;;;;;;;6.36;51.53;98909.63;5026386;28;20044;-75
2021/04/09 07:29:40;;;;;;;7.85;5.30;;;;;;;6.41;50.21;98904.31;5027961;28;20087;-76
2021/04/09 07:32:15;;;;;;;11.65;5.80;;;;;;;6.75;48.72;98909.75;5025052;28;20125;-76
2021/04/09 07:35:05;;;;;;;10.80;6.35;;;;;;;7.20;47.17;98901.50;5028366;28;20061;-76
2021/04/09 07:37:51;;;;;;;11.27;5.97;;;;;;;7.62;48.43;98904.50;5008306;28;20117;-76
2021/04/09 07:40:32;;;;;;;12.93;6.95;;;;;;;8.15;47.42;98901.88;5027381;28;20079;-75
2021/04/09 07:43:00;;;;;;;6.53;5.22;;;;;;;8.90;45.91;98900.94;5025575;28;20528;-75
2021/04/09 07:45:28;;;;;;;11.75;6.13;;;;;;;9.54;44.28;98904.38;5010161;28;20755;-75
2021/04/09 07:48:05;;;;;;;8.82;5.90;;;;;;;10.75;41.97;98896.56;5028577;28;20052;-75
2021/04/09 07:50:43;;;;;;;14.82;6.18;;;;;;;11.24;40.32;98900.34;5026256;28;20099;-76
2021/04/09 07:53:10;;;;;;;13.75;6.28;;;;;;;11.03;40.51;98900.66;5025119;28;20099;-76
2021/04/09 07:55:36;;;;;;;8.50;6.18;;;;;;;10.61;40.61;98893.56;5027983;28;20060;-76
2021/04/09 07:58:35;;;;;;;11.45;6.88;;;;;;;12.34;38.93;98903.03;5026420;28;20025;-76
2021/04/09 08:01:01;;;;;;;22.85;8.30;;;;;;;12.63;36.76;98906.66;4982495;28;20080;-75
2021/04/09 08:03:30;;;;;;;10.75;6.05;;;;;;;12.24;37.74;98897.59;5018928;28;20082;-75
2021/04/09 08:06:18;;;;;;;9.57;5.60;;;;;;;12.48;36.75;98901.28;5009938;28;20507;-76
2021/04/09 08:08:47;;;;;;;7.53;6.43;;;;;;;12.29;36.60;98892.06;5027660;28;20083;-75
2021/04/09 08:11:18;;;;;;;9.63;5.32;;;;;;;12.87;35.96;98891.09;5027434;28;20028;-75
2021/04/09 08:13:43;;;;;;;14.70;5.55;;;;;;;12.39;35.13;98899.41;5027415;28;20748;-76
2021/04/09 08:16:42;;;;;;;17.27;5.78;;;;;;;12.33;35.50;98890.41;5027040;28;20033;-75
2021/04/09 08:19:14;;;;;;;6.00;4.20;;;;;;;13.91;33.07;98900.50;5025815;28;20025;-76
2021/04/09 08:21:42;;;;;;;6.35;4.57;;;;;;;12.91;33.63;98896.84;5025136;28;20504;-75
2021/04/09 08:24:11;;;;;;;9.18;5.40;;;;;;;12.85;34.37;98887.81;5026571;28;20433;-75
2021/04/09 08:26:40;;;;;;;9.68;5.78;;;;;;;13.10;34.00;98888.75;5008720;28;20033;-76
2021/04/09 08:29:08;;;;;;;8.25;5.95;;;;;;;13.84;32.67;98883.56;5019339;28;20099;-75
2021/04/09 08:31:35;;;;;;;8.02;5.25;;;;;;;13.44;33.19;98884.00;5026917;28;20112;-75
2021/04/09 08:34:01;;;;;;;11.43;5.20;;;;;;;14.04;32.32;98873.41;5027349;28;20017;-74
2021/04/09 08:36:28;;;;;;;8.95;5.40;;;;;;;14.15;33.18;98877.66;5024821;28;20048;-74
2021/04/09 08:38:54;;;;;;;9.98;4.40;;;;;;;14.08;32.37;98872.53;5027760;28;20038;-74
2021/04/09 08:41:20;;;;;;;6.35;3.92;;;;;;;14.19;32.22;98873.22;5027827;28;20032;-74
2021/04/09 08:43:46;;;;;;;5.50;3.78;;;;;;;14.79;32.05;98855.78;5032217;28;20021;-75
2021/04/09 08:46:12;;;;;;;5.63;4.25;;;;;;;15.79;31.16;98863.34;5014176;28;20413;-75
2021/04/09 08:48:39;;;;;;;7.78;3.83;;;;;;;17.28;29.60;98866.81;5028084;28;20017;-75
2021/04/09 08:51:05;;;;;;;5.43;3.83;;;;;;;15.44;30.97;98856.56;5027170;28;20052;-74
2021/04/09 08:53:31;;;;;;;9.13;4.20;;;;;;;15.80;31.22;98865.00;5026789;28;20138;-75
2021/04/09 08:55:57;;;;;;;6.45;3.90;;;;;;;17.08;28.93;98856.28;5027458;28;20029;-76
2021/04/09 08:58:22;;;;;;;5.82;3.88;;;;;;;17.38;29.12;98855.50;5026472;28;20107;-75
2021/04/09 09:00:54;;;;;;;6.60;3.95;;;;;;;17.29;29.40;98857.38;5026360;28;20035;-75
2021/04/09 09:03:30;;;;;;;4.53;2.72;;;;;;;17.60;28.53;98865.72;5024322;28;20128;-74
2021/04/09 09:06:01;;;;;;;3.78;2.90;;;;;;;17.41;28.61;98860.38;5007642;28;20083;-75
2021/04/09 09:08:50;;;;;;;7.68;3.92;;;;;;;18.33;27.98;98858.59;5027736;28;20463;-75
2021/04/09 09:11:51;;;;;;;4.38;2.90;;;;;;;18.16;27.65;98862.16;5015581;28;20044;-74
2021/04/09 09:14:38;;;;;;;6.55;2.88;;;;;;;17.47;28.88;98850.00;5028175;28;20059;-74
2021/04/09 09:17:19;;;;;;;4.82;3.28;;;;;;;18.87;27.34;98846.09;5029920;28;20025;-75
2021/04/09 09:19:46;;;;;;;5.65;3.22;;;;;;;18.73;27.36;98853.78;5012017;28;20068;-75
2021/04/09 09:22:14;;;;;;;4.85;3.00;;;;;;;18.56;27.38;98840.72;5030252;28;20450;-75
2021/04/09 09:25:12;;;;;;;5.30;2.80;;;;;;;18.80;27.52;98849.34;5030869;28;20024;-75
2021/04/09 09:27:44;;;;;;;8.07;3.13;;;;;;;20.16;26.69;98855.63;4985491;28;20052;-75
2021/04/09 09:30:36;;;;;;;3.45;2.50;;;;;;;19.52;26.26;98845.81;5028930;28;20025;-74
2021/04/09 09:33:21;;;;;;;4.75;2.88;;;;;;;19.73;26.23;98835.63;5029630;28;20029;-75
2021/04/09 09:36:04;;;;;;;4.87;3.20;;;;;;;19.37;26.50;98840.75;5012220;28;20029;-75
2021/04/09 09:38:50;;;;;;;3.65;2.00;;;;;;;19.45;26.50;98826.88;5027878;28;21035;-73
2021/04/09 09:41:39;;;;;;;3.83;2.92;;;;;;;20.09;25.85;98835.91;5029071;28;20027;-75
2021/04/09 09:44:24;;;;;;;3.42;2.35;;;;;;;20.08;26.09;98831.47;5029872;28;20068;-74
2021/04/09 09:46:55;;;;;;;10.23;3.40;;;;;;;18.71;27.44;98834.69;5028084;28;20071;-74
2021/04/09 09:49:22;;;;;;;4.85;2.75;;;;;;;19.74;26.67;98820.56;5011877;28;20080;-74
2021/04/09 09:51:49;;;;;;;4.45;2.55;;;;;;;20.39;25.88;98816.47;5030155;28;20029;-74
2021/04/09 09:54:22;;;;;;;7.20;2.67;;;;;;;20.13;26.37;98822.97;5029792;28;20033;-74
2021/04/09 09:56:48;;;;;;;4.95;2.58;;;;;;;20.49;26.05;98819.63;5030350;28;20045;-73
2021/04/09 09:59:22;;;;;;;5.10;2.08;;;;;;;19.39;27.23;98807.97;5029838;28;20056;-75
2021/04/09 10:01:49;;;;;;;5.30;2.08;;;;;;;20.17;26.92;98801.69;5027262;28;20136;-74
2021/04/09 10:04:15;;;;;;;4.57;2.53;;;;;;;19.45;28.04;98801.13;5029846;28;20799;-74
2021/04/09 10:06:45;;;;;;;6.25;2.63;;;;;;;19.28;28.26;98796.41;5029795;28;20025;-75
2021/04/09 10:09:11;;;;;;;4.50;2.78;;;;;;;20.11;28.02;98794.69;5030038;28;20036;-75
2021/04/09 10:11:44;;;;;;;2.75;1.83;;;;;;;19.76;28.12;98785.78;5012046;28;20441;-75
2021/04/09 10:14:10;;;;;;;4.13;2.40;;;;;;;20.81;26.92;98793.03;5027541;28;20060;-75
2021/04/09 10:16:35;;;;;;;4.93;0.98;;;;;;;19.24;28.67;98776.00;5030021;28;20103;-76
2021/04/09 10:19:09;;;;;;;2.47;1.05;;;;;;;19.36;28.92;98792.78;5030366;28;20045;-74
2021/04/09 10:21:36;;;;;;;1.55;0.80;;;;;;;20.25;28.01;98786.09;4996434;28;20511;-74
2021/04/09 10:24:08;;;;;;;0.90;0.80;;;;;;;20.80;28.04;98788.59;5030197;28;20037;-75
2021/04/09 10:26:41;;;;;;;1.88;1.10;;;;;;;20.70;27.62;98794.59;5012062;28;20760;-74
2021/04/09 10:29:27;;;;;;;1.45;0.98;;;;;;;20.37;27.67;98780.66;5029816;28;20029;-75
2021/04/09 10:31:54;;;;;;;3.07;1.13;;;;;;;19.85;28.12;98777.41;5033812;28;20209;-77
2021/04/09 10:34:24;;;;;;;5.15;2.45;;;;;;;20.01;28.99;98772.88;5040751;28;20034;-76
2021/04/09 10:36:50;;;;;;;1.25;0.93;;;;;;;19.50;29.85;98781.50;5039400;28;20029;-75
2021/04/09 10:39:18;;;;;;;2.78;0.88;;;;;;;20.12;28.24;98771.31;5040805;28;20403;-76
2021/04/09 10:41:46;;;;;;;2.25;1.13;;;;;;;20.30;27.85;98767.28;5035921;28;20053;-74
2021/04/09 10:44:18;;;;;;;2.47;1.02;;;;;;;19.31;30.03;98769.94;5013002;28;20025;-76
2021/04/09 10:46:51;;;;;;;2.95;1.20;;;;;;;20.12;27.99;98762.16;5029336;28;20060;-74
2021/04/09 10:49:19;;;;;;;4.28;1.10;;;;;;;20.05;28.31;98754.38;5029108;28;20108;-74
2021/04/09 10:51:56;;;;;;;1.10;0.93;;;;;;;19.64;29.55;98754.34;5026544;28;20032;-73
2021/04/09 10:54:31;;;;;;;4.22;1.13;;;;;;;20.26;28.99;98760.81;5029195;28;20446;-74
2021/04/09 10:56:59;;;;;;;1.15;0.98;;;;;;;18.30;31.02;98759.50;5010865;28;20040;-74
2021/04/09 10:59:26;;;;;;;1.88;1.38;;;;;;;16.59;33.94;98752.25;5009055;28;21048;-75
2021/04/09 11:01:53;;;;;;;2.72;1.23;;;;;;;16.70;34.40;98739.78;5030118;28;20059;-74
2021/04/09 11:04:19;;;;;;;1.38;1.13;;;;;;;16.11;35.39;98737.38;5028498;28;20045;-74
2021/04/09 11:06:58;;;;;;;5.10;1.50;;;;;;;16.25;35.16;98736.22;5029046;28;20438;-75
2021/04/09 11:09:43;;;;;;;2.40;2.05;;;;;;;15.64;35.57;98730.44;5008652;28;20039;-77
2021/04/09 11:12:28;;;;;;;1.38;1.27;;;;;;;15.19;36.20;98723.94;5019494;28;20453;-76
2021/04/09 11:15:13;;;;;;;3.28;1.95;;;;;;;15.76;36.33;98728.78;5026688;28;20025;-75
2021/04/09 11:17:40;;;;;;;2.63;1.50;;;;;;;15.32;36.78;98720.34;5027543;28;20036;-76
2021/04/09 11:20:26;;;;;;;1.60;1.15;;;;;;;14.78;38.31;98730.22;5033807;28;20025;-77
2021/04/09 11:23:13;;;;;;;3.78;1.35;;;;;;;14.72;37.96;98725.91;5039348;28;20026;-77
2021/04/09 11:25:43;;;;;;;5.07;1.58;;;;;;;15.14;37.69;98719.31;5029785;28;20029;-76
2021/04/09 11:28:25;;;;;;;1.60;1.20;;;;;;;15.95;36.99;98718.41;5027527;28;20029;-77
2021/04/09 11:30:58;;;;;;;3.45;1.95;;;;;;;15.53;36.94;98719.66;5027304;28;20115;-77
2021/04/09 11:33:37;;;;;;;4.50;1.48;;;;;;;15.65;36.77;98716.34;5008841;28;20026;-75
2021/04/09 11:36:25;;;;;;;5.97;1.90;;;;;;;15.23;36.61;98722.19;5026337;28;20124;-76
2021/04/09 11:39:12;;;;;;;5.72;1.52;;;;;;;14.20;38.13;98710.56;5021989;28;20041;-75
2021/04/09 11:41:40;;;;;;;3.97;1.48;;;;;;;14.62;37.83;98717.84;5027339;28;20029;-77
2021/04/09 11:44:29;;;;;;;3.95;1.17;;;;;;;14.85;37.88;98716.84;5027205;28;20021;-75
2021/04/09 11:47:19;;;;;;;2.35;1.65;;;;;;;15.13;37.37;98706.66;5026558;28;20017;-75
2021/04/09 11:49:46;;;;;;;9.18;1.45;;;;;;;15.59;37.12;98714.84;5025470;28;20848;-75
2021/04/09 11:52:11;;;;;;;4.35;1.35;;;;;;;15.80;35.84;98691.19;5026568;28;20462;-76